createdAt,value
2023-03-30T00:01:12.222Z,8.70
2023-03-30T00:03:40.008Z,8.70
2023-03-30T00:06:09.366Z,8.70
2023-03-30T00:08:37.371Z,8.80
2023-03-30T00:11:10.470Z,8.80
2023-03-30T00:13:41.228Z,8.80
2023-03-30T00:16:11.482Z,8.80
2023-03-30T00:18:39.710Z,8.80
2023-03-30T00:21:09.581Z,8.80
2023-03-30T00:23:36.982Z,8.70
2023-03-30T00:26:04.324Z,8.70
2023-03-30T00:28:31.797Z,8.70
2023-03-30T00:30:59.233Z,8.70
2023-03-30T00:33:41.431Z,8.70
2023-03-30T00:36:11.754Z,8.80
2023-03-30T00:38:38.773Z,8.90
2023-03-30T00:41:07.288Z,8.90
2023-03-30T00:43:34.551Z,8.90
2023-03-30T00:46:01.876Z,8.80
2023-03-30T00:48:37.443Z,8.80
2023-03-30T00:51:10.629Z,8.80
2023-03-30T00:53:43.808Z,8.80
2023-03-30T00:56:14.089Z,8.80
2023-03-30T00:58:43.640Z,8.80
2023-03-30T01:01:15.125Z,8.80
2023-03-30T01:03:48.440Z,8.80
2023-03-30T01:06:24.586Z,8.80
2023-03-30T01:08:53.374Z,8.90
2023-03-30T01:11:21.690Z,8.90
2023-03-30T01:13:54.672Z,9.00
2023-03-30T01:16:42.144Z,9.40
2023-03-30T01:19:24.103Z,9.80
2023-03-30T01:22:18.844Z,10.40
2023-03-30T01:25:18.614Z,10.80
2023-03-30T01:28:04.609Z,10.90
2023-03-30T01:31:01.927Z,11.10
2023-03-30T01:33:56.994Z,11.20
2023-03-30T01:36:35.789Z,11.20
2023-03-30T01:39:13.028Z,11.20
2023-03-30T01:42:00.729Z,11.10
2023-03-30T01:44:51.884Z,11.10
2023-03-30T01:47:37.906Z,11.00
2023-03-30T01:50:29.873Z,11.00
2023-03-30T01:53:15.012Z,11.00
2023-03-30T01:56:09.533Z,11.10
2023-03-30T01:58:52.584Z,11.10
2023-03-30T02:01:20.921Z,11.10
2023-03-30T02:03:53.714Z,11.10
2023-03-30T02:06:27.125Z,11.30
2023-03-30T02:08:56.960Z,11.40
2023-03-30T02:11:26.685Z,11.50
2023-03-30T02:13:55.355Z,11.60
2023-03-30T02:16:29.389Z,11.60
2023-03-30T02:18:57.865Z,11.60
2023-03-30T02:21:25.954Z,11.60
2023-03-30T02:23:55.020Z,11.60
2023-03-30T02:26:23.027Z,11.60
2023-03-30T02:28:50.858Z,11.60
2023-03-30T02:31:17.859Z,11.60
2023-03-30T02:34:17.470Z,11.70
2023-03-30T02:37:03.559Z,11.70
2023-03-30T02:39:36.748Z,11.60
2023-03-30T02:42:24.540Z,11.70
2023-03-30T02:45:03.099Z,11.70
2023-03-30T02:47:45.215Z,11.60
2023-03-30T02:50:24.691Z,11.60
2023-03-30T02:52:52.518Z,11.70
2023-03-30T02:55:30.410Z,11.80
2023-03-30T02:58:03.287Z,11.90
2023-03-30T03:01:06.165Z,11.90
2023-03-30T03:03:38.551Z,11.80
2023-03-30T03:06:09.467Z,11.80
2023-03-30T03:08:39.902Z,12.00
2023-03-30T03:11:08.207Z,12.00
2023-03-30T03:13:39.845Z,12.00
2023-03-30T03:16:11.187Z,12.00
2023-03-30T03:18:42.730Z,11.90
2023-03-30T03:21:10.765Z,11.80
2023-03-30T03:23:37.957Z,11.70
2023-03-30T03:26:05.999Z,11.70
2023-03-30T03:28:33.057Z,11.50
2023-03-30T03:31:00.357Z,11.50
2023-03-30T03:33:28.094Z,11.60
2023-03-30T03:35:55.486Z,11.60
2023-03-30T03:38:23.864Z,11.60
2023-03-30T03:40:52.560Z,11.70
2023-03-30T03:43:19.989Z,11.70
2023-03-30T03:45:48.118Z,11.80
2023-03-30T03:48:16.529Z,11.80
2023-03-30T03:50:44.916Z,12.00
2023-03-30T03:53:12.870Z,12.10
2023-03-30T03:55:39.907Z,12.10
2023-03-30T03:58:07.472Z,12.10
2023-03-30T04:00:34.970Z,12.10
2023-03-30T04:03:02.278Z,12.10
2023-03-30T04:05:29.899Z,12.10
2023-03-30T04:07:57.115Z,12.10
2023-03-30T04:10:25.520Z,12.10
2023-03-30T04:12:56.256Z,12.10
2023-03-30T04:15:25.004Z,12.00
2023-03-30T04:17:57.920Z,11.90
2023-03-30T04:20:26.939Z,11.90
2023-03-30T04:22:54.327Z,11.80
2023-03-30T04:25:25.889Z,11.80
2023-03-30T04:27:53.650Z,11.70
2023-03-30T04:30:22.619Z,11.60
2023-03-30T04:33:09.988Z,11.50
2023-03-30T04:35:37.011Z,11.50
2023-03-30T04:38:04.053Z,11.50
2023-03-30T04:40:31.272Z,11.50
2023-03-30T04:43:02.500Z,11.50
2023-03-30T04:45:32.330Z,11.60
2023-03-30T04:47:59.468Z,11.60
2023-03-30T04:50:27.760Z,11.60
2023-03-30T04:52:54.772Z,11.60
2023-03-30T04:55:22.059Z,11.60
2023-03-30T04:57:49.150Z,11.60
2023-03-30T05:00:18.140Z,11.50
2023-03-30T05:02:46.418Z,11.50
2023-03-30T05:05:14.106Z,11.50
2023-03-30T05:07:42.108Z,11.40
2023-03-30T05:10:10.321Z,11.40
2023-03-30T05:12:37.306Z,11.40
2023-03-30T05:15:08.150Z,11.30
2023-03-30T05:17:38.907Z,11.20
2023-03-30T05:20:10.533Z,11.20
2023-03-30T05:22:38.750Z,11.10
2023-03-30T05:25:07.467Z,11.00
2023-03-30T05:27:34.634Z,10.90
2023-03-30T05:30:02.076Z,10.90
2023-03-30T05:32:29.121Z,10.90
2023-03-30T05:34:56.834Z,10.90
2023-03-30T05:37:23.824Z,10.90
2023-03-30T05:39:50.997Z,10.90
2023-03-30T05:42:18.308Z,10.90
2023-03-30T05:44:45.520Z,10.90
2023-03-30T05:47:12.676Z,10.90
2023-03-30T05:49:39.639Z,10.90
2023-03-30T05:52:08.760Z,10.90
2023-03-30T05:54:36.034Z,10.90
2023-03-30T05:57:04.362Z,10.90
2023-03-30T05:59:31.882Z,10.90
2023-03-30T06:01:59.136Z,10.90
2023-03-30T06:04:27.877Z,10.90
2023-03-30T06:06:54.909Z,11.00
2023-03-30T06:09:24.158Z,11.00
2023-03-30T06:11:51.942Z,11.00
2023-03-30T06:14:19.623Z,11.00
2023-03-30T06:16:46.781Z,11.00
2023-03-30T06:19:14.747Z,11.10
2023-03-30T06:21:46.082Z,11.20
2023-03-30T06:24:13.676Z,11.20
2023-03-30T06:27:14.257Z,11.10
2023-03-30T06:29:47.717Z,11.20
2023-03-30T06:32:15.080Z,11.20
2023-03-30T06:34:42.505Z,11.20
2023-03-30T06:37:10.802Z,11.30
2023-03-30T06:39:38.734Z,11.30
2023-03-30T06:42:06.689Z,11.20
2023-03-30T06:44:37.358Z,11.10
2023-03-30T06:47:06.227Z,11.10
2023-03-30T06:49:38.410Z,11.10
2023-03-30T06:52:08.192Z,11.20
2023-03-30T06:54:37.919Z,11.10
2023-03-30T06:57:04.988Z,11.20
2023-03-30T06:59:41.296Z,11.20
2023-03-30T07:02:15.438Z,11.30
2023-03-30T07:04:42.539Z,11.20
2023-03-30T07:07:09.699Z,11.20
2023-03-30T07:09:36.997Z,11.30
2023-03-30T07:12:04.476Z,11.20
2023-03-30T07:14:31.533Z,11.30
2023-03-30T07:16:58.836Z,11.30
2023-03-30T07:19:26.286Z,11.30
2023-03-30T07:21:53.406Z,11.40
2023-03-30T07:24:20.611Z,11.40
2023-03-30T07:26:47.581Z,11.40
2023-03-30T07:29:15.725Z,11.40
2023-03-30T07:31:43.913Z,11.50
2023-03-30T07:34:13.441Z,11.60
2023-03-30T07:36:43.047Z,11.70
2023-03-30T07:39:15.486Z,11.80
2023-03-30T07:41:48.582Z,11.90
2023-03-30T07:44:20.996Z,11.90
2023-03-30T07:46:51.364Z,11.90
2023-03-30T07:49:21.082Z,11.90
2023-03-30T07:51:49.714Z,11.90
2023-03-30T07:54:24.173Z,12.00
2023-03-30T07:56:55.215Z,12.00
2023-03-30T07:59:25.936Z,12.00
2023-03-30T08:02:08.235Z,12.00
2023-03-30T08:04:35.753Z,12.20
2023-03-30T08:07:02.946Z,12.10
2023-03-30T08:09:30.973Z,12.10
2023-03-30T08:11:58.245Z,12.00
2023-03-30T08:14:27.574Z,11.90
2023-03-30T08:16:55.237Z,11.80
2023-03-30T08:19:24.851Z,11.80
2023-03-30T08:21:54.379Z,11.80
2023-03-30T08:24:21.763Z,11.70
2023-03-30T08:26:48.928Z,11.70
2023-03-30T08:29:17.210Z,11.80
2023-03-30T08:31:45.683Z,11.80
2023-03-30T08:34:12.931Z,11.80
2023-03-30T08:36:40.987Z,11.70
2023-03-30T08:39:11.013Z,11.70
2023-03-30T08:41:50.263Z,11.70
2023-03-30T08:44:31.322Z,11.70
2023-03-30T08:47:00.474Z,11.70
2023-03-30T08:49:28.911Z,11.80
2023-03-30T08:51:56.461Z,11.90
2023-03-30T08:54:25.976Z,11.90
2023-03-30T08:57:00.028Z,12.10
2023-03-30T08:59:44.988Z,12.10
2023-03-30T09:02:20.910Z,12.10
2023-03-30T09:05:12.651Z,12.20
2023-03-30T09:07:49.258Z,12.10
2023-03-30T09:10:17.008Z,12.10
2023-03-30T09:12:48.700Z,12.10
2023-03-30T09:15:20.499Z,12.10
2023-03-30T09:18:02.158Z,12.00
2023-03-30T09:20:32.778Z,12.00
2023-03-30T09:26:03.379Z,12.10
2023-03-30T09:28:35.168Z,12.20
2023-03-30T09:31:14.732Z,12.30
2023-03-30T09:33:50.128Z,12.50
2023-03-30T09:36:45.952Z,12.70
2023-03-30T09:39:26.316Z,13.00
2023-03-30T09:42:23.168Z,13.40
2023-03-30T09:45:11.099Z,14.00
2023-03-30T09:47:39.903Z,14.30
2023-03-30T09:50:12.249Z,14.10
2023-03-30T09:52:41.154Z,14.00
2023-03-30T09:55:26.465Z,13.80
2023-03-30T09:57:54.866Z,13.60
2023-03-30T10:00:29.602Z,13.30
2023-03-30T10:02:59.131Z,13.00
2023-03-30T10:05:27.753Z,12.80
2023-03-30T10:08:03.251Z,12.80
2023-03-30T10:10:37.603Z,12.90
2023-03-30T10:13:07.833Z,12.90
2023-03-30T10:15:39.096Z,12.90
2023-03-30T10:18:27.916Z,12.80
2023-03-30T10:21:08.179Z,12.80
2023-03-30T10:23:40.234Z,12.80
2023-03-30T10:26:17.869Z,12.90
2023-03-30T10:29:04.410Z,13.00
2023-03-30T10:31:36.510Z,13.30
2023-03-30T10:34:07.108Z,13.50
2023-03-30T10:36:41.134Z,13.70
2023-03-30T10:39:26.186Z,13.90
2023-03-30T10:41:54.693Z,13.90
2023-03-30T10:44:26.391Z,13.80
2023-03-30T10:47:02.447Z,13.70
2023-03-30T10:49:39.961Z,13.50
2023-03-30T10:52:23.343Z,13.40
2023-03-30T10:55:02.881Z,13.30
2023-03-30T10:57:55.356Z,13.50
2023-03-30T11:00:59.505Z,14.50
2023-03-30T11:03:32.668Z,15.20
2023-03-30T11:06:21.132Z,15.40
2023-03-30T11:08:51.032Z,15.50
2023-03-30T11:11:23.734Z,15.40
2023-03-30T11:13:56.058Z,14.90
2023-03-30T11:16:33.816Z,14.80
2023-03-30T11:19:11.097Z,14.40
2023-03-30T11:21:58.316Z,14.10
2023-03-30T11:24:29.819Z,13.80
2023-03-30T11:27:09.814Z,13.70
2023-03-30T11:29:54.942Z,13.90
2023-03-30T11:32:49.905Z,14.00
2023-03-30T11:35:44.396Z,13.80
2023-03-30T11:38:46.353Z,13.70
2023-03-30T11:41:29.382Z,13.80
2023-03-30T11:44:00.573Z,13.70
2023-03-30T11:46:37.334Z,13.70
2023-03-30T11:49:33.180Z,13.80
2023-03-30T11:52:33.394Z,13.80
2023-03-30T11:55:23.972Z,14.00
2023-03-30T11:58:11.349Z,14.00
2023-03-30T12:00:50.700Z,14.00
2023-03-30T12:03:43.194Z,14.20
2023-03-30T12:06:36.805Z,14.60
2023-03-30T12:09:07.454Z,14.70
2023-03-30T12:11:59.481Z,14.60
2023-03-30T12:14:43.120Z,14.60
2023-03-30T12:17:36.273Z,14.70
2023-03-30T12:20:23.646Z,15.00
2023-03-30T12:22:57.503Z,15.30
2023-03-30T12:25:48.358Z,15.30
2023-03-30T12:28:17.389Z,15.40
2023-03-30T12:31:02.762Z,15.60
2023-03-30T12:33:36.285Z,16.10
2023-03-30T12:36:23.613Z,15.90
2023-03-30T12:38:53.006Z,15.80
2023-03-30T12:41:22.216Z,15.40
2023-03-30T12:44:09.296Z,15.20
2023-03-30T12:47:24.374Z,15.00
2023-03-30T12:50:45.932Z,14.70
2023-03-30T12:53:31.252Z,14.60
2023-03-30T12:56:07.917Z,14.70
2023-03-30T12:58:59.082Z,14.80
2023-03-30T13:01:44.436Z,14.90
2023-03-30T13:04:24.288Z,14.90
2023-03-30T13:06:58.139Z,14.80
2023-03-30T13:09:29.201Z,14.90
2023-03-30T13:11:56.124Z,15.00
2023-03-30T13:14:30.464Z,15.20
2023-03-30T13:17:00.550Z,15.40
2023-03-30T13:19:33.630Z,15.40
2023-03-30T13:22:13.194Z,15.30
2023-03-30T13:24:45.173Z,15.10
2023-03-30T13:27:15.164Z,14.80
2023-03-30T13:29:48.703Z,14.70
2023-03-30T13:32:44.038Z,14.60
2023-03-30T13:35:29.879Z,14.70
2023-03-30T13:38:21.919Z,15.00
2023-03-30T13:41:07.304Z,15.10
2023-03-30T13:44:12.484Z,15.40
2023-03-30T13:46:55.149Z,15.40
2023-03-30T13:50:03.715Z,15.30
2023-03-30T13:52:41.366Z,15.20
2023-03-30T13:55:17.975Z,15.40
2023-03-30T13:57:45.050Z,15.80
2023-03-30T14:00:44.726Z,16.10
2023-03-30T14:03:27.377Z,16.00
2023-03-30T14:06:02.955Z,15.80
2023-03-30T14:08:34.641Z,15.90
2023-03-30T14:11:04.990Z,15.80
2023-03-30T14:13:32.848Z,15.80
2023-03-30T14:15:59.956Z,15.60
2023-03-30T14:18:27.758Z,15.30
2023-03-30T14:21:03.123Z,14.90
2023-03-30T14:23:45.201Z,14.50
2023-03-30T14:26:25.077Z,14.20
2023-03-30T14:28:58.006Z,14.00
2023-03-30T14:31:27.468Z,13.70
2023-03-30T14:33:56.644Z,13.50
2023-03-30T14:36:24.073Z,13.40
2023-03-30T14:38:53.870Z,13.30
2023-03-30T14:41:27.578Z,13.30
2023-03-30T14:44:04.181Z,13.20
2023-03-30T14:46:42.523Z,13.10
2023-03-30T14:49:25.644Z,13.00
2023-03-30T14:51:59.813Z,12.90
2023-03-30T14:54:27.507Z,12.80
2023-03-30T14:57:00.489Z,12.80
2023-03-30T14:59:30.722Z,12.70
2023-03-30T15:01:58.430Z,12.60
2023-03-30T15:04:32.059Z,12.60
2023-03-30T15:06:59.718Z,12.50
2023-03-30T15:09:27.324Z,12.50
2023-03-30T15:11:57.379Z,12.40
2023-03-30T15:14:24.815Z,12.40
2023-03-30T15:16:53.887Z,12.30
2023-03-30T15:19:32.871Z,12.20
2023-03-30T15:22:23.011Z,12.10
2023-03-30T15:24:51.187Z,12.10
2023-03-30T15:27:18.657Z,12.20
2023-03-30T15:29:45.757Z,12.30
2023-03-30T15:32:16.923Z,12.20
2023-03-30T15:35:08.768Z,12.10
2023-03-30T15:37:37.055Z,12.10
2023-03-30T15:40:25.358Z,12.00
2023-03-30T15:43:12.019Z,12.10
2023-03-30T15:45:39.415Z,12.20
2023-03-30T15:48:11.175Z,12.30
2023-03-30T15:50:38.308Z,12.30
2023-03-30T15:53:06.186Z,12.40
2023-03-30T15:55:33.872Z,12.50
2023-03-30T15:58:01.096Z,12.60
2023-03-30T16:00:29.653Z,12.90
2023-03-30T16:02:59.458Z,13.20
2023-03-30T16:05:29.436Z,13.50
2023-03-30T16:07:56.800Z,13.60
2023-03-30T16:10:28.022Z,13.70
2023-03-30T16:12:57.933Z,13.70
2023-03-30T16:15:31.100Z,13.60
2023-03-30T16:17:58.558Z,13.40
2023-03-30T16:20:29.110Z,13.40
2023-03-30T16:22:56.535Z,13.40
2023-03-30T16:25:41.685Z,13.50
2023-03-30T16:28:16.492Z,13.50
2023-03-30T16:30:46.416Z,13.50
2023-03-30T16:33:13.724Z,13.40
2023-03-30T16:35:40.742Z,13.30
2023-03-30T16:38:07.730Z,13.20
2023-03-30T16:40:42.978Z,13.20
2023-03-30T16:43:10.470Z,13.20
2023-03-30T16:45:37.812Z,13.10
2023-03-30T16:48:05.317Z,13.00
2023-03-30T16:50:37.605Z,12.90
2023-03-30T16:53:05.841Z,12.90
2023-03-30T16:55:33.530Z,12.90
2023-03-30T16:58:00.525Z,12.80
2023-03-30T17:00:33.457Z,12.70
2023-03-30T17:03:00.746Z,12.60
2023-03-30T17:05:27.824Z,12.70
2023-03-30T17:07:55.617Z,12.60
2023-03-30T17:10:28.488Z,12.50
2023-03-30T17:12:55.942Z,12.50
2023-03-30T17:15:24.323Z,12.40
2023-03-30T17:17:52.310Z,12.30
2023-03-30T17:20:43.006Z,12.20
2023-03-30T17:23:10.682Z,12.20
2023-03-30T17:25:40.026Z,12.10
2023-03-30T17:28:10.843Z,12.00
2023-03-30T17:30:42.396Z,11.90
2023-03-30T17:33:10.893Z,11.80
2023-03-30T17:35:38.989Z,11.70
2023-03-30T17:38:09.438Z,11.60
2023-03-30T17:40:40.055Z,11.50
2023-03-30T17:43:08.005Z,11.40
2023-03-30T17:45:36.223Z,11.40
2023-03-30T17:48:05.049Z,11.30
2023-03-30T17:50:37.784Z,11.20
2023-03-30T17:53:05.442Z,11.10
2023-03-30T17:55:33.849Z,11.00
2023-03-30T17:58:01.046Z,10.90
2023-03-30T18:00:31.946Z,10.80
2023-03-30T18:03:00.171Z,10.80
2023-03-30T18:05:31.007Z,10.80
2023-03-30T18:07:58.507Z,10.70
2023-03-30T18:10:38.564Z,10.70
2023-03-30T18:13:06.606Z,10.70
2023-03-30T18:15:34.154Z,10.80
2023-03-30T18:18:02.451Z,10.70
2023-03-30T18:20:36.178Z,10.70
2023-03-30T18:23:03.626Z,10.70
2023-03-30T18:25:32.878Z,10.70
2023-03-30T18:28:01.567Z,10.60
2023-03-30T18:30:33.005Z,10.60
2023-03-30T18:33:00.397Z,10.50
2023-03-30T18:35:29.575Z,10.50
2023-03-30T18:37:57.398Z,10.50
2023-03-30T18:40:39.140Z,10.50
2023-03-30T18:43:06.841Z,10.40
2023-03-30T18:45:37.780Z,10.40
2023-03-30T18:48:06.832Z,10.40
2023-03-30T18:50:38.915Z,10.40
2023-03-30T18:53:08.730Z,10.40
2023-03-30T18:55:37.886Z,10.40
2023-03-30T18:58:16.690Z,10.40
2023-03-30T19:00:44.017Z,10.40
2023-03-30T19:03:13.696Z,10.50
2023-03-30T19:05:42.179Z,10.50
2023-03-30T19:08:13.860Z,10.60
2023-03-30T19:10:42.548Z,10.60
2023-03-30T19:13:21.055Z,10.60
2023-03-30T19:15:49.649Z,10.60
2023-03-30T19:18:17.948Z,10.50
2023-03-30T19:20:46.094Z,10.50
2023-03-30T19:23:14.644Z,10.40
2023-03-30T19:25:42.932Z,10.40
2023-03-30T19:28:10.967Z,10.40
2023-03-30T19:30:39.910Z,10.40
2023-03-30T19:33:12.201Z,10.20
2023-03-30T19:35:43.954Z,10.20
2023-03-30T19:38:10.907Z,10.20
2023-03-30T19:40:38.911Z,10.20
2023-03-30T19:43:07.753Z,10.30
2023-03-30T19:45:34.969Z,10.30
2023-03-30T19:48:02.306Z,10.30
2023-03-30T19:50:30.339Z,10.30
2023-03-30T19:52:58.028Z,10.20
2023-03-30T19:55:25.139Z,10.20
2023-03-30T19:57:52.103Z,10.30
2023-03-30T20:00:20.704Z,10.40
2023-03-30T20:02:52.142Z,10.40
2023-03-30T20:05:21.366Z,10.40
2023-03-30T20:07:48.932Z,10.40
2023-03-30T20:10:19.482Z,10.20
2023-03-30T20:12:47.437Z,10.10
2023-03-30T20:15:15.073Z,10.10
2023-03-30T20:17:42.335Z,10.00
2023-03-30T20:20:12.820Z,9.90
2023-03-30T20:22:42.626Z,9.80
2023-03-30T20:25:12.787Z,9.70
2023-03-30T20:27:40.426Z,9.70
2023-03-30T20:30:08.803Z,9.70
2023-03-30T20:32:36.082Z,9.70
2023-03-30T20:35:04.163Z,9.70
2023-03-30T20:37:31.187Z,9.70
2023-03-30T20:40:05.417Z,9.70
2023-03-30T20:42:33.324Z,9.80
2023-03-30T20:45:01.312Z,9.60
2023-03-30T20:47:30.995Z,9.70
2023-03-30T20:49:59.161Z,9.70
2023-03-30T20:52:27.068Z,9.70
2023-03-30T20:54:54.623Z,9.70
2023-03-30T20:57:22.733Z,9.70
2023-03-30T20:59:50.799Z,9.60
2023-03-30T21:02:17.888Z,9.50
2023-03-30T21:04:45.279Z,9.40
2023-03-30T21:07:12.699Z,9.40
2023-03-30T21:09:40.176Z,9.50
2023-03-30T21:12:07.793Z,9.40
2023-03-30T21:14:34.776Z,9.30
2023-03-30T21:17:01.947Z,9.40
2023-03-30T21:19:28.938Z,9.30
2023-03-30T21:21:55.922Z,9.30
2023-03-30T21:24:22.934Z,9.30
2023-03-30T21:26:49.929Z,9.30
2023-03-30T21:29:16.983Z,9.30
2023-03-30T21:31:44.095Z,9.20
2023-03-30T21:34:11.842Z,9.10
2023-03-30T21:36:39.640Z,9.00
2023-03-30T21:39:07.062Z,9.10
2023-03-30T21:41:34.093Z,9.20
2023-03-30T21:44:01.514Z,9.10
2023-03-30T21:46:28.827Z,9.20
2023-03-30T21:48:55.939Z,9.20
2023-03-30T21:51:28.344Z,9.20
2023-03-30T21:53:57.928Z,9.20
2023-03-30T21:56:29.099Z,9.30
2023-03-30T21:58:56.414Z,9.30
2023-03-30T22:01:24.510Z,9.30
2023-03-30T22:03:52.573Z,9.30
2023-03-30T22:06:20.592Z,9.30
2023-03-30T22:08:48.042Z,9.20
2023-03-30T22:11:17.594Z,9.20
2023-03-30T22:13:46.858Z,9.20
2023-03-30T22:16:18.762Z,9.30
2023-03-30T22:18:46.703Z,9.20
2023-03-30T22:21:17.473Z,9.20
2023-03-30T22:23:45.478Z,9.30
2023-03-30T22:26:12.997Z,9.20
2023-03-30T22:28:40.473Z,9.20
2023-03-30T22:31:13.601Z,9.10
2023-03-30T22:33:41.190Z,9.10
2023-03-30T22:36:20.666Z,8.90
2023-03-30T22:38:49.055Z,8.70
2023-03-30T22:41:16.743Z,8.60
2023-03-30T22:43:43.889Z,8.40
2023-03-30T22:46:11.383Z,8.30
2023-03-30T22:48:41.650Z,8.20
2023-03-30T22:51:08.872Z,8.20
2023-03-30T22:53:36.180Z,8.20
2023-03-30T22:56:03.789Z,8.10
2023-03-30T22:58:31.419Z,8.20
2023-03-30T23:01:03.408Z,8.20
2023-03-30T23:03:30.897Z,8.10
2023-03-30T23:06:01.871Z,8.10
2023-03-30T23:08:29.801Z,8.00
2023-03-30T23:10:57.814Z,8.00
2023-03-30T23:13:27.443Z,7.90
2023-03-30T23:15:56.412Z,7.80
2023-03-30T23:18:24.958Z,7.70
2023-03-30T23:20:54.131Z,7.70
2023-03-30T23:23:22.229Z,7.70
2023-03-30T23:25:50.304Z,7.70
2023-03-30T23:28:19.485Z,7.80
2023-03-30T23:30:46.804Z,7.80
2023-03-30T23:33:14.057Z,8.00
2023-03-30T23:35:47.477Z,8.00
2023-03-30T23:38:14.500Z,8.00
2023-03-30T23:40:41.775Z,8.10
2023-03-30T23:43:09.238Z,8.20
2023-03-30T23:45:36.625Z,8.30
2023-03-30T23:48:05.093Z,8.40
2023-03-30T23:50:33.247Z,8.40
2023-03-30T23:53:00.615Z,8.40
2023-03-30T23:55:27.688Z,8.60
2023-03-30T23:57:54.822Z,8.60
